ADDS METAR Data

Data at: 0716 UTC 16 Jan 2018

METAR for:KLAX (Los Angeles Intl, CA, US)
Text:KLAX 160653Z 26008KT 10SM SCT007 BKN150 15/14 A3013 RMK AO2 SLP200 T01500144
Temperature: 15.0°C ( 59°F)
Dewpoint: 14.4°C ( 58°F) [RH = 96%]
Pressure (altimeter):30.13 inches Hg (1020.4 mb) [Sea level pressure: 1020.0 mb]
Winds:from the W (260 degrees) at 9 MPH (8 knots; 4.1 m/s)
Visibility:10 or more sm (16+ km)
Ceiling:15000 feet AGL
Clouds: scattered clouds at 700 feet AGL, broken clouds at 15000 feet AGL